sensor_id;sensor_type;location;lat;lon;timestamp;temperature;humidity
17053;DHT22;8643;48.824;11.422;2023-11-18T00:00:33;4.60;99.90
17053;DHT22;8643;48.824;11.422;2023-11-18T00:03:03;4.60;99.90
17053;DHT22;8643;48.824;11.422;2023-11-18T00:05:32;4.60;99.90
17053;DHT22;8643;48.824;11.422;2023-11-18T00:08:01;4.60;99.90
17053;DHT22;8643;48.824;11.422;2023-11-18T00:10:30;4.50;99.90
17053;DHT22;8643;48.824;11.422;2023-11-18T00:12:58;4.40;99.90
17053;DHT22;8643;48.824;11.422;2023-11-18T00:15:28;4.40;99.90
17053;DHT22;8643;48.824;11.422;2023-11-18T00:17:56;4.40;99.90
17053;DHT22;8643;48.824;11.422;2023-11-18T00:20:26;4.40;99.90
17053;DHT22;8643;48.824;11.422;2023-11-18T00:22:54;4.40;99.90
17053;DHT22;8643;48.824;11.422;2023-11-18T00:25:22;4.40;99.90
17053;DHT22;8643;48.824;11.422;2023-11-18T00:27:51;4.40;99.90
17053;DHT22;8643;48.824;11.422;2023-11-18T00:30:19;4.40;99.90
17053;DHT22;8643;48.824;11.422;2023-11-18T00:32:48;4.40;99.90
17053;DHT22;8643;48.824;11.422;2023-11-18T00:35:17;4.40;99.90
17053;DHT22;8643;48.824;11.422;2023-11-18T00:37:47;4.40;99.90
17053;DHT22;8643;48.824;11.422;2023-11-18T00:40:15;4.30;99.90
17053;DHT22;8643;48.824;11.422;2023-11-18T00:42:45;4.30;99.90
17053;DHT22;8643;48.824;11.422;2023-11-18T00:45:13;4.40;99.90
17053;DHT22;8643;48.824;11.422;2023-11-18T00:47:42;4.30;99.90
17053;DHT22;8643;48.824;11.422;2023-11-18T00:52:40;4.30;99.90
17053;DHT22;8643;48.824;11.422;2023-11-18T00:55:11;4.40;99.90
17053;DHT22;8643;48.824;11.422;2023-11-18T00:57:39;4.40;99.90
17053;DHT22;8643;48.824;11.422;2023-11-18T01:00:11;4.40;99.90
17053;DHT22;8643;48.824;11.422;2023-11-18T01:02:43;4.40;99.90
17053;DHT22;8643;48.824;11.422;2023-11-18T01:05:14;4.40;99.90
17053;DHT22;8643;48.824;11.422;2023-11-18T01:07:42;4.40;99.90
17053;DHT22;8643;48.824;11.422;2023-11-18T01:10:12;4.40;99.90
17053;DHT22;8643;48.824;11.422;2023-11-18T01:12:41;4.30;99.90
17053;DHT22;8643;48.824;11.422;2023-11-18T01:15:12;4.40;99.90
17053;DHT22;8643;48.824;11.422;2023-11-18T01:17:41;4.40;99.90
17053;DHT22;8643;48.824;11.422;2023-11-18T01:20:11;4.40;99.90
17053;DHT22;8643;48.824;11.422;2023-11-18T01:22:40;4.40;99.90
17053;DHT22;8643;48.824;11.422;2023-11-18T01:25:14;4.50;99.90
17053;DHT22;8643;48.824;11.422;2023-11-18T01:27:44;4.40;99.90
17053;DHT22;8643;48.824;11.422;2023-11-18T01:30:14;4.40;99.90
17053;DHT22;8643;48.824;11.422;2023-11-18T01:32:42;4.50;99.90
17053;DHT22;8643;48.824;11.422;2023-11-18T01:37:40;4.50;99.90
17053;DHT22;8643;48.824;11.422;2023-11-18T01:40:09;4.50;99.90
17053;DHT22;8643;48.824;11.422;2023-11-18T01:42:43;4.40;99.90
17053;DHT22;8643;48.824;11.422;2023-11-18T01:45:13;4.40;99.90
17053;DHT22;8643;48.824;11.422;2023-11-18T01:47:44;4.50;99.90
17053;DHT22;8643;48.824;11.422;2023-11-18T01:50:16;4.50;99.90
17053;DHT22;8643;48.824;11.422;2023-11-18T01:52:46;4.40;99.90
17053;DHT22;8643;48.824;11.422;2023-11-18T01:55:16;4.40;99.90
17053;DHT22;8643;48.824;11.422;2023-11-18T01:57:46;4.40;99.90
17053;DHT22;8643;48.824;11.422;2023-11-18T02:00:14;4.40;99.90
17053;DHT22;8643;48.824;11.422;2023-11-18T02:02:45;4.40;99.90
17053;DHT22;8643;48.824;11.422;2023-11-18T02:05:15;4.40;99.90
17053;DHT22;8643;48.824;11.422;2023-11-18T02:07:45;4.30;99.90
17053;DHT22;8643;48.824;11.422;2023-11-18T02:10:14;4.30;99.90
17053;DHT22;8643;48.824;11.422;2023-11-18T02:12:53;4.40;99.90
17053;DHT22;8643;48.824;11.422;2023-11-18T02:15:26;4.20;99.90
17053;DHT22;8643;48.824;11.422;2023-11-18T02:18:01;4.20;99.90
17053;DHT22;8643;48.824;11.422;2023-11-18T02:20:34;4.20;99.90
17053;DHT22;8643;48.824;11.422;2023-11-18T02:23:03;4.10;99.90
17053;DHT22;8643;48.824;11.422;2023-11-18T02:28:12;4.20;99.90
17053;DHT22;8643;48.824;11.422;2023-11-18T02:30:41;4.20;99.90
17053;DHT22;8643;48.824;11.422;2023-11-18T02:33:17;4.10;99.90
17053;DHT22;8643;48.824;11.422;2023-11-18T02:35:51;4.10;99.90
17053;DHT22;8643;48.824;11.422;2023-11-18T02:38:30;4.10;99.90
17053;DHT22;8643;48.824;11.422;2023-11-18T02:41:10;4.10;99.90
17053;DHT22;8643;48.824;11.422;2023-11-18T02:43:40;4.00;99.90
17053;DHT22;8643;48.824;11.422;2023-11-18T02:46:12;4.00;99.90
17053;DHT22;8643;48.824;11.422;2023-11-18T02:48:41;4.00;99.90
17053;DHT22;8643;48.824;11.422;2023-11-18T02:51:10;4.20;99.90
17053;DHT22;8643;48.824;11.422;2023-11-18T02:53:39;4.20;99.90
17053;DHT22;8643;48.824;11.422;2023-11-18T02:56:13;4.20;99.90
17053;DHT22;8643;48.824;11.422;2023-11-18T02:58:42;4.20;99.90
17053;DHT22;8643;48.824;11.422;2023-11-18T03:01:11;4.20;99.90
17053;DHT22;8643;48.824;11.422;2023-11-18T03:03:40;4.10;99.90
17053;DHT22;8643;48.824;11.422;2023-11-18T03:06:09;4.10;99.90
17053;DHT22;8643;48.824;11.422;2023-11-18T03:08:38;4.10;99.90
17053;DHT22;8643;48.824;11.422;2023-11-18T03:13:39;4.00;99.90
17053;DHT22;8643;48.824;11.422;2023-11-18T03:16:08;4.00;99.90
17053;DHT22;8643;48.824;11.422;2023-11-18T03:18:39;4.10;99.90
17053;DHT22;8643;48.824;11.422;2023-11-18T03:21:11;4.10;99.90
17053;DHT22;8643;48.824;11.422;2023-11-18T03:23:40;4.00;99.90
17053;DHT22;8643;48.824;11.422;2023-11-18T03:26:09;4.10;99.90
17053;DHT22;8643;48.824;11.422;2023-11-18T03:28:40;4.10;99.90
17053;DHT22;8643;48.824;11.422;2023-11-18T03:31:09;4.20;99.90
17053;DHT22;8643;48.824;11.422;2023-11-18T03:33:38;4.10;99.90
17053;DHT22;8643;48.824;11.422;2023-11-18T03:36:07;4.10;99.90
17053;DHT22;8643;48.824;11.422;2023-11-18T03:38:39;4.10;99.90
17053;DHT22;8643;48.824;11.422;2023-11-18T03:41:07;4.10;99.90
17053;DHT22;8643;48.824;11.422;2023-11-18T03:43:38;4.10;99.90
17053;DHT22;8643;48.824;11.422;2023-11-18T03:46:07;4.20;99.90
17053;DHT22;8643;48.824;11.422;2023-11-18T03:48:35;4.20;99.90
17053;DHT22;8643;48.824;11.422;2023-11-18T03:51:04;4.20;99.90
17053;DHT22;8643;48.824;11.422;2023-11-18T03:53:33;4.20;99.90
17053;DHT22;8643;48.824;11.422;2023-11-18T03:56:04;4.20;99.90
17053;DHT22;8643;48.824;11.422;2023-11-18T03:58:33;4.20;99.90
17053;DHT22;8643;48.824;11.422;2023-11-18T04:01:03;4.20;99.90
17053;DHT22;8643;48.824;11.422;2023-11-18T04:03:33;4.30;99.90
17053;DHT22;8643;48.824;11.422;2023-11-18T04:06:03;4.20;99.90
17053;DHT22;8643;48.824;11.422;2023-11-18T04:08:31;4.30;99.90
17053;DHT22;8643;48.824;11.422;2023-11-18T04:11:01;4.10;99.90
17053;DHT22;8643;48.824;11.422;2023-11-18T04:13:31;4.20;99.90
17053;DHT22;8643;48.824;11.422;2023-11-18T04:16:00;4.20;99.90
17053;DHT22;8643;48.824;11.422;2023-11-18T04:18:30;4.20;99.90
17053;DHT22;8643;48.824;11.422;2023-11-18T04:20:59;4.20;99.90
17053;DHT22;8643;48.824;11.422;2023-11-18T04:25:59;4.20;99.90
17053;DHT22;8643;48.824;11.422;2023-11-18T04:28:28;4.20;99.90
17053;DHT22;8643;48.824;11.422;2023-11-18T04:30:57;4.10;99.90
17053;DHT22;8643;48.824;11.422;2023-11-18T04:33:26;4.10;99.90
17053;DHT22;8643;48.824;11.422;2023-11-18T04:35:57;4.10;99.90
17053;DHT22;8643;48.824;11.422;2023-11-18T04:38:26;4.10;99.90
17053;DHT22;8643;48.824;11.422;2023-11-18T04:40:55;4.10;99.90
17053;DHT22;8643;48.824;11.422;2023-11-18T04:43:24;4.10;99.90
17053;DHT22;8643;48.824;11.422;2023-11-18T04:46:08;4.10;99.90
17053;DHT22;8643;48.824;11.422;2023-11-18T04:48:38;4.10;99.90
17053;DHT22;8643;48.824;11.422;2023-11-18T04:51:10;4.10;99.90
17053;DHT22;8643;48.824;11.422;2023-11-18T04:53:39;4.20;99.90
17053;DHT22;8643;48.824;11.422;2023-11-18T04:56:08;4.20;99.90
17053;DHT22;8643;48.824;11.422;2023-11-18T04:58:38;4.20;99.90
17053;DHT22;8643;48.824;11.422;2023-11-18T05:01:07;4.20;99.90
17053;DHT22;8643;48.824;11.422;2023-11-18T05:03:36;4.20;99.90
17053;DHT22;8643;48.824;11.422;2023-11-18T05:06:05;4.20;99.90
17053;DHT22;8643;48.824;11.422;2023-11-18T05:08:36;4.20;99.90
17053;DHT22;8643;48.824;11.422;2023-11-18T05:11:05;4.10;99.90
17053;DHT22;8643;48.824;11.422;2023-11-18T05:13:34;4.10;99.90
17053;DHT22;8643;48.824;11.422;2023-11-18T05:16:03;4.10;99.90
17053;DHT22;8643;48.824;11.422;2023-11-18T05:18:32;4.10;99.90
17053;DHT22;8643;48.824;11.422;2023-11-18T05:21:04;4.20;99.90
17053;DHT22;8643;48.824;11.422;2023-11-18T05:23:35;4.20;99.90
17053;DHT22;8643;48.824;11.422;2023-11-18T05:26:04;4.20;99.90
17053;DHT22;8643;48.824;11.422;2023-11-18T05:28:33;4.20;99.90
17053;DHT22;8643;48.824;11.422;2023-11-18T05:31:02;4.20;99.90
17053;DHT22;8643;48.824;11.422;2023-11-18T05:33:32;4.20;99.90
17053;DHT22;8643;48.824;11.422;2023-11-18T05:36:02;4.10;99.90
17053;DHT22;8643;48.824;11.422;2023-11-18T05:38:33;4.10;99.90
17053;DHT22;8643;48.824;11.422;2023-11-18T05:41:04;4.10;99.90
17053;DHT22;8643;48.824;11.422;2023-11-18T05:43:43;4.10;99.90
17053;DHT22;8643;48.824;11.422;2023-11-18T05:48:50;4.20;99.90
17053;DHT22;8643;48.824;11.422;2023-11-18T05:51:20;4.10;99.90
17053;DHT22;8643;48.824;11.422;2023-11-18T05:53:50;6.30;99.90
17053;DHT22;8643;48.824;11.422;2023-11-18T05:56:21;4.20;99.90
17053;DHT22;8643;48.824;11.422;2023-11-18T05:58:51;4.20;99.90
17053;DHT22;8643;48.824;11.422;2023-11-18T06:01:21;4.20;99.90
17053;DHT22;8643;48.824;11.422;2023-11-18T06:03:50;4.20;99.90
17053;DHT22;8643;48.824;11.422;2023-11-18T06:06:19;4.30;99.90
17053;DHT22;8643;48.824;11.422;2023-11-18T06:08:50;4.30;99.90
17053;DHT22;8643;48.824;11.422;2023-11-18T06:11:22;4.30;99.90
17053;DHT22;8643;48.824;11.422;2023-11-18T06:13:51;4.40;99.90
17053;DHT22;8643;48.824;11.422;2023-11-18T06:16:21;4.30;99.90
17053;DHT22;8643;48.824;11.422;2023-11-18T06:18:53;4.30;99.90
17053;DHT22;8643;48.824;11.422;2023-11-18T06:21:23;4.30;99.90
17053;DHT22;8643;48.824;11.422;2023-11-18T06:23:55;4.30;99.90
17053;DHT22;8643;48.824;11.422;2023-11-18T06:26:26;4.30;99.90
17053;DHT22;8643;48.824;11.422;2023-11-18T06:28:56;4.30;99.90
17053;DHT22;8643;48.824;11.422;2023-11-18T06:31:26;4.30;99.90
17053;DHT22;8643;48.824;11.422;2023-11-18T06:33:56;4.30;99.90
17053;DHT22;8643;48.824;11.422;2023-11-18T06:36:25;4.30;99.90
17053;DHT22;8643;48.824;11.422;2023-11-18T06:38:56;4.40;99.90
17053;DHT22;8643;48.824;11.422;2023-11-18T06:41:27;4.50;99.90
17053;DHT22;8643;48.824;11.422;2023-11-18T06:44:01;4.40;99.90
17053;DHT22;8643;48.824;11.422;2023-11-18T06:46:36;4.40;99.90
17053;DHT22;8643;48.824;11.422;2023-11-18T06:51:42;4.40;99.90
17053;DHT22;8643;48.824;11.422;2023-11-18T06:54:11;4.50;99.90
17053;DHT22;8643;48.824;11.422;2023-11-18T06:56:42;4.50;99.90
17053;DHT22;8643;48.824;11.422;2023-11-18T06:59:12;4.50;99.90
17053;DHT22;8643;48.824;11.422;2023-11-18T07:01:43;4.60;99.90
17053;DHT22;8643;48.824;11.422;2023-11-18T07:04:13;4.60;99.90
17053;DHT22;8643;48.824;11.422;2023-11-18T07:06:43;4.60;99.90
17053;DHT22;8643;48.824;11.422;2023-11-18T07:09:12;4.60;99.90
17053;DHT22;8643;48.824;11.422;2023-11-18T07:11:47;4.60;99.90
17053;DHT22;8643;48.824;11.422;2023-11-18T07:14:18;4.60;99.90
17053;DHT22;8643;48.824;11.422;2023-11-18T07:16:47;4.60;99.90
17053;DHT22;8643;48.824;11.422;2023-11-18T07:19:15;4.60;99.90
17053;DHT22;8643;48.824;11.422;2023-11-18T07:21:48;4.70;99.90
17053;DHT22;8643;48.824;11.422;2023-11-18T07:24:18;4.70;99.90
17053;DHT22;8643;48.824;11.422;2023-11-18T07:26:50;4.70;99.90
17053;DHT22;8643;48.824;11.422;2023-11-18T07:29:19;4.70;99.90
17053;DHT22;8643;48.824;11.422;2023-11-18T07:31:50;4.70;99.90
17053;DHT22;8643;48.824;11.422;2023-11-18T07:34:22;4.70;99.90
17053;DHT22;8643;48.824;11.422;2023-11-18T07:39:23;4.80;99.90
17053;DHT22;8643;48.824;11.422;2023-11-18T07:42:12;4.80;99.90
17053;DHT22;8643;48.824;11.422;2023-11-18T07:44:42;4.80;99.90
17053;DHT22;8643;48.824;11.422;2023-11-18T07:47:11;4.90;99.90
17053;DHT22;8643;48.824;11.422;2023-11-18T07:49:39;4.90;99.90
17053;DHT22;8643;48.824;11.422;2023-11-18T07:54:36;5.10;99.90
17053;DHT22;8643;48.824;11.422;2023-11-18T07:57:06;5.20;99.90
17053;DHT22;8643;48.824;11.422;2023-11-18T07:59:39;5.20;99.90
17053;DHT22;8643;48.824;11.422;2023-11-18T08:02:07;5.20;99.90
17053;DHT22;8643;48.824;11.422;2023-11-18T08:04:37;4.10;99.90
17053;DHT22;8643;48.824;11.422;2023-11-18T08:07:06;5.50;99.90
17053;DHT22;8643;48.824;11.422;2023-11-18T08:09:37;5.60;99.90
17053;DHT22;8643;48.824;11.422;2023-11-18T08:12:06;5.60;99.90
17053;DHT22;8643;48.824;11.422;2023-11-18T08:14:36;5.60;99.90
17053;DHT22;8643;48.824;11.422;2023-11-18T08:17:06;5.70;99.90
17053;DHT22;8643;48.824;11.422;2023-11-18T08:19:34;5.80;99.90
17053;DHT22;8643;48.824;11.422;2023-11-18T08:22:03;6.20;99.90
17053;DHT22;8643;48.824;11.422;2023-11-18T08:24:33;6.30;99.90
17053;DHT22;8643;48.824;11.422;2023-11-18T08:29:32;6.30;99.90
17053;DHT22;8643;48.824;11.422;2023-11-18T08:32:01;6.30;99.90
17053;DHT22;8643;48.824;11.422;2023-11-18T08:34:31;6.40;99.90
17053;DHT22;8643;48.824;11.422;2023-11-18T08:37:00;6.30;99.90
17053;DHT22;8643;48.824;11.422;2023-11-18T08:39:30;6.10;99.90
17053;DHT22;8643;48.824;11.422;2023-11-18T08:41:59;6.10;99.90
17053;DHT22;8643;48.824;11.422;2023-11-18T08:44:27;6.10;99.90
17053;DHT22;8643;48.824;11.422;2023-11-18T08:46:56;6.00;99.90
17053;DHT22;8643;48.824;11.422;2023-11-18T08:49:26;6.10;99.90
17053;DHT22;8643;48.824;11.422;2023-11-18T08:52:02;6.10;99.90
17053;DHT22;8643;48.824;11.422;2023-11-18T08:57:25;6.10;99.90
17053;DHT22;8643;48.824;11.422;2023-11-18T08:59:54;6.10;99.90
17053;DHT22;8643;48.824;11.422;2023-11-18T09:02:25;6.20;99.90
17053;DHT22;8643;48.824;11.422;2023-11-18T09:05:00;6.20;99.90
17053;DHT22;8643;48.824;11.422;2023-11-18T09:07:35;6.10;99.90
17053;DHT22;8643;48.824;11.422;2023-11-18T09:10:04;6.10;99.90
17053;DHT22;8643;48.824;11.422;2023-11-18T09:12:33;6.10;99.90
17053;DHT22;8643;48.824;11.422;2023-11-18T09:15:02;6.20;99.90
17053;DHT22;8643;48.824;11.422;2023-11-18T09:17:31;6.10;99.90
17053;DHT22;8643;48.824;11.422;2023-11-18T09:19:59;6.00;99.90
17053;DHT22;8643;48.824;11.422;2023-11-18T09:22:28;6.00;99.90
17053;DHT22;8643;48.824;11.422;2023-11-18T09:24:59;6.10;99.90
17053;DHT22;8643;48.824;11.422;2023-11-18T09:27:27;6.30;99.90
17053;DHT22;8643;48.824;11.422;2023-11-18T09:29:56;6.30;99.90
17053;DHT22;8643;48.824;11.422;2023-11-18T09:32:24;6.60;99.90
17053;DHT22;8643;48.824;11.422;2023-11-18T09:37:22;7.10;99.90
17053;DHT22;8643;48.824;11.422;2023-11-18T09:39:50;7.20;99.90
17053;DHT22;8643;48.824;11.422;2023-11-18T09:42:21;7.20;99.90
17053;DHT22;8643;48.824;11.422;2023-11-18T09:47:24;7.30;99.90
17053;DHT22;8643;48.824;11.422;2023-11-18T09:49:56;7.30;99.90
17053;DHT22;8643;48.824;11.422;2023-11-18T09:52:30;7.30;99.90
17053;DHT22;8643;48.824;11.422;2023-11-18T09:55:04;7.20;99.90
17053;DHT22;8643;48.824;11.422;2023-11-18T09:57:48;7.10;99.90
17053;DHT22;8643;48.824;11.422;2023-11-18T10:00:26;7.10;99.90
17053;DHT22;8643;48.824;11.422;2023-11-18T10:03:00;7.00;99.90
17053;DHT22;8643;48.824;11.422;2023-11-18T10:05:29;7.20;99.90
17053;DHT22;8643;48.824;11.422;2023-11-18T10:07:58;7.40;99.90
17053;DHT22;8643;48.824;11.422;2023-11-18T10:10:28;7.70;99.90
17053;DHT22;8643;48.824;11.422;2023-11-18T10:13:05;7.90;99.90
17053;DHT22;8643;48.824;11.422;2023-11-18T10:15:50;8.00;99.90
17053;DHT22;8643;48.824;11.422;2023-11-18T10:18:21;7.90;99.90
17053;DHT22;8643;48.824;11.422;2023-11-18T10:20:51;8.00;99.90
17053;DHT22;8643;48.824;11.422;2023-11-18T10:23:21;8.00;99.90
17053;DHT22;8643;48.824;11.422;2023-11-18T10:25:52;8.10;99.90
17053;DHT22;8643;48.824;11.422;2023-11-18T10:28:26;8.20;99.90
17053;DHT22;8643;48.824;11.422;2023-11-18T10:30:56;8.20;99.90
17053;DHT22;8643;48.824;11.422;2023-11-18T10:33:26;8.10;99.90
17053;DHT22;8643;48.824;11.422;2023-11-18T10:35:59;8.10;99.90
17053;DHT22;8643;48.824;11.422;2023-11-18T10:38:31;8.10;99.90
17053;DHT22;8643;48.824;11.422;2023-11-18T10:41:05;8.00;99.90
17053;DHT22;8643;48.824;11.422;2023-11-18T10:43:36;8.00;99.90
17053;DHT22;8643;48.824;11.422;2023-11-18T10:46:07;8.00;99.90
17053;DHT22;8643;48.824;11.422;2023-11-18T10:48:41;7.90;99.90
17053;DHT22;8643;48.824;11.422;2023-11-18T10:51:11;7.90;99.90
17053;DHT22;8643;48.824;11.422;2023-11-18T10:53:41;7.80;99.90
17053;DHT22;8643;48.824;11.422;2023-11-18T10:56:21;7.70;99.90
17053;DHT22;8643;48.824;11.422;2023-11-18T10:58:57;7.70;99.90
17053;DHT22;8643;48.824;11.422;2023-11-18T11:01:30;7.70;99.90
17053;DHT22;8643;48.824;11.422;2023-11-18T11:04:00;7.70;99.90
17053;DHT22;8643;48.824;11.422;2023-11-18T11:06:33;7.80;99.90
17053;DHT22;8643;48.824;11.422;2023-11-18T11:09:01;7.90;99.90
17053;DHT22;8643;48.824;11.422;2023-11-18T11:11:40;8.20;99.90
17053;DHT22;8643;48.824;11.422;2023-11-18T11:14:16;8.30;99.90
17053;DHT22;8643;48.824;11.422;2023-11-18T11:16:52;8.30;99.90
17053;DHT22;8643;48.824;11.422;2023-11-18T11:19:26;8.00;99.90
17053;DHT22;8643;48.824;11.422;2023-11-18T11:22:15;7.70;99.90
17053;DHT22;8643;48.824;11.422;2023-11-18T11:24:54;7.50;99.90
17053;DHT22;8643;48.824;11.422;2023-11-18T11:27:45;7.50;99.90
17053;DHT22;8643;48.824;11.422;2023-11-18T11:30:23;7.50;99.90
17053;DHT22;8643;48.824;11.422;2023-11-18T11:33:04;7.50;99.90
17053;DHT22;8643;48.824;11.422;2023-11-18T11:35:49;7.50;99.90
17053;DHT22;8643;48.824;11.422;2023-11-18T11:38:27;7.80;99.90
17053;DHT22;8643;48.824;11.422;2023-11-18T11:40:57;7.90;99.90
17053;DHT22;8643;48.824;11.422;2023-11-18T11:43:29;7.90;99.90
17053;DHT22;8643;48.824;11.422;2023-11-18T11:46:03;8.00;99.90
17053;DHT22;8643;48.824;11.422;2023-11-18T11:48:38;5.90;99.90
17053;DHT22;8643;48.824;11.422;2023-11-18T11:51:19;8.00;99.90
17053;DHT22;8643;48.824;11.422;2023-11-18T11:53:58;8.10;99.90
17053;DHT22;8643;48.824;11.422;2023-11-18T11:56:40;8.30;99.90
17053;DHT22;8643;48.824;11.422;2023-11-18T11:59:12;8.50;99.90
17053;DHT22;8643;48.824;11.422;2023-11-18T12:01:42;8.40;99.90
17053;DHT22;8643;48.824;11.422;2023-11-18T12:04:15;8.30;99.90
17053;DHT22;8643;48.824;11.422;2023-11-18T12:06:52;8.30;99.90
17053;DHT22;8643;48.824;11.422;2023-11-18T12:09:38;8.30;99.90
17053;DHT22;8643;48.824;11.422;2023-11-18T12:12:17;8.20;99.90
17053;DHT22;8643;48.824;11.422;2023-11-18T12:14:50;8.60;99.90
17053;DHT22;8643;48.824;11.422;2023-11-18T12:17:25;8.50;99.90
17053;DHT22;8643;48.824;11.422;2023-11-18T12:19:59;9.00;99.90
17053;DHT22;8643;48.824;11.422;2023-11-18T12:23:04;9.20;99.90
17053;DHT22;8643;48.824;11.422;2023-11-18T12:25:41;9.60;99.90
17053;DHT22;8643;48.824;11.422;2023-11-18T12:28:15;9.90;99.90
17053;DHT22;8643;48.824;11.422;2023-11-18T12:30:48;10.10;99.90
17053;DHT22;8643;48.824;11.422;2023-11-18T12:34:02;10.40;99.90
17053;DHT22;8643;48.824;11.422;2023-11-18T12:36:58;10.70;99.90
17053;DHT22;8643;48.824;11.422;2023-11-18T12:43:01;10.20;99.90
17053;DHT22;8643;48.824;11.422;2023-11-18T12:45:50;10.20;99.90
17053;DHT22;8643;48.824;11.422;2023-11-18T12:48:43;9.90;99.90
17053;DHT22;8643;48.824;11.422;2023-11-18T12:51:15;9.60;99.90
17053;DHT22;8643;48.824;11.422;2023-11-18T12:53:49;9.60;99.90
17053;DHT22;8643;48.824;11.422;2023-11-18T12:56:21;9.60;99.90
17053;DHT22;8643;48.824;11.422;2023-11-18T12:58:51;9.60;99.90
17053;DHT22;8643;48.824;11.422;2023-11-18T13:01:22;9.60;99.90
17053;DHT22;8643;48.824;11.422;2023-11-18T13:03:50;9.80;99.90
17053;DHT22;8643;48.824;11.422;2023-11-18T13:06:22;10.00;99.90
17053;DHT22;8643;48.824;11.422;2023-11-18T13:08:55;10.10;99.90
17053;DHT22;8643;48.824;11.422;2023-11-18T13:11:25;9.90;99.90
17053;DHT22;8643;48.824;11.422;2023-11-18T13:13:54;9.80;99.90
17053;DHT22;8643;48.824;11.422;2023-11-18T13:16:24;9.60;99.90
17053;DHT22;8643;48.824;11.422;2023-11-18T13:18:52;9.40;99.90
17053;DHT22;8643;48.824;11.422;2023-11-18T13:21:25;9.20;99.90
17053;DHT22;8643;48.824;11.422;2023-11-18T13:23:56;9.10;99.90
17053;DHT22;8643;48.824;11.422;2023-11-18T13:26:24;8.80;99.90
17053;DHT22;8643;48.824;11.422;2023-11-18T13:28:53;8.90;99.90
17053;DHT22;8643;48.824;11.422;2023-11-18T13:31:22;8.90;99.90
17053;DHT22;8643;48.824;11.422;2023-11-18T13:36:20;8.60;99.90
17053;DHT22;8643;48.824;11.422;2023-11-18T13:38:50;8.60;99.90
17053;DHT22;8643;48.824;11.422;2023-11-18T13:41:29;8.50;99.90
17053;DHT22;8643;48.824;11.422;2023-11-18T13:43:58;8.40;99.90
17053;DHT22;8643;48.824;11.422;2023-11-18T13:46:26;8.40;99.90
17053;DHT22;8643;48.824;11.422;2023-11-18T13:48:56;8.10;99.90
17053;DHT22;8643;48.824;11.422;2023-11-18T13:51:26;8.10;99.90
17053;DHT22;8643;48.824;11.422;2023-11-18T13:53:56;7.90;99.90
17053;DHT22;8643;48.824;11.422;2023-11-18T13:56:26;7.80;99.90
17053;DHT22;8643;48.824;11.422;2023-11-18T13:58:56;7.80;99.90
17053;DHT22;8643;48.824;11.422;2023-11-18T14:01:25;7.80;99.90
17053;DHT22;8643;48.824;11.422;2023-11-18T14:03:55;7.80;99.90
17053;DHT22;8643;48.824;11.422;2023-11-18T14:06:30;7.80;99.90
17053;DHT22;8643;48.824;11.422;2023-11-18T14:09:00;7.70;99.90
17053;DHT22;8643;48.824;11.422;2023-11-18T14:11:31;7.80;99.90
17053;DHT22;8643;48.824;11.422;2023-11-18T14:14:01;7.70;99.90
17053;DHT22;8643;48.824;11.422;2023-11-18T14:16:30;7.70;99.90
17053;DHT22;8643;48.824;11.422;2023-11-18T14:18:58;7.70;99.90
17053;DHT22;8643;48.824;11.422;2023-11-18T14:21:27;7.70;99.90
17053;DHT22;8643;48.824;11.422;2023-11-18T14:23:56;7.60;99.90
17053;DHT22;8643;48.824;11.422;2023-11-18T14:26:28;7.60;99.90
17053;DHT22;8643;48.824;11.422;2023-11-18T14:28:57;7.60;99.90
17053;DHT22;8643;48.824;11.422;2023-11-18T14:31:26;7.60;99.90
17053;DHT22;8643;48.824;11.422;2023-11-18T14:33:55;7.50;99.90
17053;DHT22;8643;48.824;11.422;2023-11-18T14:36:25;7.50;99.90
17053;DHT22;8643;48.824;11.422;2023-11-18T14:38:54;7.50;99.90
17053;DHT22;8643;48.824;11.422;2023-11-18T14:41:23;7.50;99.90
17053;DHT22;8643;48.824;11.422;2023-11-18T14:43:57;7.40;99.90
17053;DHT22;8643;48.824;11.422;2023-11-18T14:46:27;7.30;99.90
17053;DHT22;8643;48.824;11.422;2023-11-18T14:48:58;7.40;99.90
17053;DHT22;8643;48.824;11.422;2023-11-18T14:51:26;7.30;99.90
17053;DHT22;8643;48.824;11.422;2023-11-18T14:53:54;7.30;99.90
17053;DHT22;8643;48.824;11.422;2023-11-18T14:56:23;7.20;99.90
17053;DHT22;8643;48.824;11.422;2023-11-18T14:58:52;7.10;99.90
17053;DHT22;8643;48.824;11.422;2023-11-18T15:01:22;7.10;99.90
17053;DHT22;8643;48.824;11.422;2023-11-18T15:03:50;6.90;99.90
17053;DHT22;8643;48.824;11.422;2023-11-18T15:06:25;6.80;99.90
17053;DHT22;8643;48.824;11.422;2023-11-18T15:08:54;6.80;99.90
17053;DHT22;8643;48.824;11.422;2023-11-18T15:11:24;6.80;99.90
17053;DHT22;8643;48.824;11.422;2023-11-18T15:16:25;6.80;99.90
17053;DHT22;8643;48.824;11.422;2023-11-18T15:18:54;6.70;99.90
17053;DHT22;8643;48.824;11.422;2023-11-18T15:21:23;6.70;99.90
17053;DHT22;8643;48.824;11.422;2023-11-18T15:23:52;6.70;99.90
17053;DHT22;8643;48.824;11.422;2023-11-18T15:26:26;6.60;99.90
17053;DHT22;8643;48.824;11.422;2023-11-18T15:28:55;6.40;99.90
17053;DHT22;8643;48.824;11.422;2023-11-18T15:31:27;6.40;99.90
17053;DHT22;8643;48.824;11.422;2023-11-18T15:36:25;6.20;99.90
17053;DHT22;8643;48.824;11.422;2023-11-18T15:38:54;6.20;99.90
17053;DHT22;8643;48.824;11.422;2023-11-18T15:41:22;6.20;99.90
17053;DHT22;8643;48.824;11.422;2023-11-18T15:43:51;6.10;99.90
17053;DHT22;8643;48.824;11.422;2023-11-18T15:46:19;6.10;99.90
17053;DHT22;8643;48.824;11.422;2023-11-18T15:48:49;6.00;99.90
17053;DHT22;8643;48.824;11.422;2023-11-18T15:51:18;6.00;99.90
17053;DHT22;8643;48.824;11.422;2023-11-18T15:53:47;6.00;99.90
17053;DHT22;8643;48.824;11.422;2023-11-18T15:56:16;6.00;99.90
17053;DHT22;8643;48.824;11.422;2023-11-18T15:58:46;5.90;99.90
17053;DHT22;8643;48.824;11.422;2023-11-18T16:01:14;5.90;99.90
17053;DHT22;8643;48.824;11.422;2023-11-18T16:03:43;5.90;99.90
17053;DHT22;8643;48.824;11.422;2023-11-18T16:06:14;5.90;99.90
17053;DHT22;8643;48.824;11.422;2023-11-18T16:08:43;5.90;99.90
17053;DHT22;8643;48.824;11.422;2023-11-18T16:11:13;5.90;99.90
17053;DHT22;8643;48.824;11.422;2023-11-18T16:13:41;5.80;99.90
17053;DHT22;8643;48.824;11.422;2023-11-18T16:16:10;5.90;99.90
17053;DHT22;8643;48.824;11.422;2023-11-18T16:18:39;5.80;99.90
17053;DHT22;8643;48.824;11.422;2023-11-18T16:21:09;5.80;99.90
17053;DHT22;8643;48.824;11.422;2023-11-18T16:23:39;5.80;99.90
17053;DHT22;8643;48.824;11.422;2023-11-18T16:26:08;5.80;99.90
17053;DHT22;8643;48.824;11.422;2023-11-18T16:28:36;5.80;99.90
17053;DHT22;8643;48.824;11.422;2023-11-18T16:31:06;5.80;99.90
17053;DHT22;8643;48.824;11.422;2023-11-18T16:33:35;5.70;99.90
17053;DHT22;8643;48.824;11.422;2023-11-18T16:36:04;5.70;99.90
17053;DHT22;8643;48.824;11.422;2023-11-18T16:38:33;5.80;99.90
17053;DHT22;8643;48.824;11.422;2023-11-18T16:41:03;5.70;99.90
17053;DHT22;8643;48.824;11.422;2023-11-18T16:43:33;5.70;99.90
17053;DHT22;8643;48.824;11.422;2023-11-18T16:46:01;5.60;99.90
17053;DHT22;8643;48.824;11.422;2023-11-18T16:48:32;5.70;99.90
17053;DHT22;8643;48.824;11.422;2023-11-18T16:51:00;5.60;99.90
17053;DHT22;8643;48.824;11.422;2023-11-18T16:53:30;5.60;99.90